sensor_id;sensor_type;location;lat;lon;timestamp;P1;durP1;ratioP1;P2;durP2;ratioP2
8281;SDS011;25606;42.686;23.136;2023-05-07T00:01:51;6.27;;;5.63;;
8281;SDS011;25606;42.686;23.136;2023-05-07T00:04:19;6.00;;;5.40;;
8281;SDS011;25606;42.686;23.136;2023-05-07T00:06:46;5.07;;;4.57;;
8281;SDS011;25606;42.686;23.136;2023-05-07T00:09:13;6.60;;;5.30;;
8281;SDS011;25606;42.686;23.136;2023-05-07T00:11:41;5.87;;;4.83;;
8281;SDS011;25606;42.686;23.136;2023-05-07T00:14:08;5.70;;;4.90;;
8281;SDS011;25606;42.686;23.136;2023-05-07T00:16:36;7.37;;;5.20;;
8281;SDS011;25606;42.686;23.136;2023-05-07T00:19:04;6.27;;;5.13;;
8281;SDS011;25606;42.686;23.136;2023-05-07T00:21:32;7.03;;;5.90;;
8281;SDS011;25606;42.686;23.136;2023-05-07T00:23:59;6.50;;;5.80;;
8281;SDS011;25606;42.686;23.136;2023-05-07T00:26:26;8.50;;;6.13;;
8281;SDS011;25606;42.686;23.136;2023-05-07T00:28:54;6.57;;;5.97;;
8281;SDS011;25606;42.686;23.136;2023-05-07T00:31:21;6.90;;;6.03;;
8281;SDS011;25606;42.686;23.136;2023-05-07T00:33:48;7.43;;;6.40;;
8281;SDS011;25606;42.686;23.136;2023-05-07T00:36:17;6.73;;;6.13;;
8281;SDS011;25606;42.686;23.136;2023-05-07T00:38:44;7.77;;;5.63;;
8281;SDS011;25606;42.686;23.136;2023-05-07T00:41:12;7.00;;;5.70;;
8281;SDS011;25606;42.686;23.136;2023-05-07T00:43:39;6.20;;;5.33;;
8281;SDS011;25606;42.686;23.136;2023-05-07T00:46:06;6.73;;;5.17;;
8281;SDS011;25606;42.686;23.136;2023-05-07T00:48:34;5.90;;;5.40;;
8281;SDS011;25606;42.686;23.136;2023-05-07T00:51:01;7.77;;;6.40;;
8281;SDS011;25606;42.686;23.136;2023-05-07T00:53:30;6.43;;;5.83;;
8281;SDS011;25606;42.686;23.136;2023-05-07T00:55:57;6.97;;;5.50;;
8281;SDS011;25606;42.686;23.136;2023-05-07T00:58:26;7.90;;;5.50;;
8281;SDS011;25606;42.686;23.136;2023-05-07T01:00:53;6.13;;;5.30;;
8281;SDS011;25606;42.686;23.136;2023-05-07T01:03:20;4.87;;;4.40;;
8281;SDS011;25606;42.686;23.136;2023-05-07T01:05:48;4.97;;;4.53;;
8281;SDS011;25606;42.686;23.136;2023-05-07T01:08:19;6.83;;;5.93;;
8281;SDS011;25606;42.686;23.136;2023-05-07T01:10:48;6.30;;;5.70;;
8281;SDS011;25606;42.686;23.136;2023-05-07T01:13:16;6.33;;;5.73;;
8281;SDS011;25606;42.686;23.136;2023-05-07T01:15:43;6.20;;;5.63;;
8281;SDS011;25606;42.686;23.136;2023-05-07T01:18:10;6.53;;;5.93;;
8281;SDS011;25606;42.686;23.136;2023-05-07T01:20:38;6.53;;;5.73;;
8281;SDS011;25606;42.686;23.136;2023-05-07T01:23:07;7.70;;;6.30;;
8281;SDS011;25606;42.686;23.136;2023-05-07T01:25:35;7.10;;;6.40;;
8281;SDS011;25606;42.686;23.136;2023-05-07T01:28:02;8.03;;;5.97;;
8281;SDS011;25606;42.686;23.136;2023-05-07T01:30:30;10.40;;;6.87;;
8281;SDS011;25606;42.686;23.136;2023-05-07T01:33:00;7.67;;;6.80;;
8281;SDS011;25606;42.686;23.136;2023-05-07T01:35:30;8.30;;;7.30;;
8281;SDS011;25606;42.686;23.136;2023-05-07T01:37:59;8.67;;;7.40;;
8281;SDS011;25606;42.686;23.136;2023-05-07T01:40:30;8.70;;;7.90;;
8281;SDS011;25606;42.686;23.136;2023-05-07T01:42:59;11.63;;;7.73;;
8281;SDS011;25606;42.686;23.136;2023-05-07T01:45:26;9.37;;;7.67;;
8281;SDS011;25606;42.686;23.136;2023-05-07T01:47:54;7.70;;;6.90;;
8281;SDS011;25606;42.686;23.136;2023-05-07T01:50:22;11.30;;;7.60;;
8281;SDS011;25606;42.686;23.136;2023-05-07T01:52:50;7.90;;;7.10;;
8281;SDS011;25606;42.686;23.136;2023-05-07T01:55:17;9.60;;;7.50;;
8281;SDS011;25606;42.686;23.136;2023-05-07T01:57:46;10.80;;;7.87;;
8281;SDS011;25606;42.686;23.136;2023-05-07T02:00:13;8.10;;;7.23;;
8281;SDS011;25606;42.686;23.136;2023-05-07T02:02:41;8.47;;;7.23;;
8281;SDS011;25606;42.686;23.136;2023-05-07T02:05:08;10.60;;;7.07;;
8281;SDS011;25606;42.686;23.136;2023-05-07T02:07:35;8.73;;;7.43;;
8281;SDS011;25606;42.686;23.136;2023-05-07T02:10:03;8.07;;;7.20;;
8281;SDS011;25606;42.686;23.136;2023-05-07T02:12:31;8.67;;;6.57;;
8281;SDS011;25606;42.686;23.136;2023-05-07T02:15:00;7.40;;;6.50;;
8281;SDS011;25606;42.686;23.136;2023-05-07T02:17:27;9.47;;;6.73;;
8281;SDS011;25606;42.686;23.136;2023-05-07T02:19:56;7.53;;;6.83;;
8281;SDS011;25606;42.686;23.136;2023-05-07T02:22:24;7.53;;;6.07;;
8281;SDS011;25606;42.686;23.136;2023-05-07T02:24:51;9.97;;;6.70;;
8281;SDS011;25606;42.686;23.136;2023-05-07T02:27:18;9.33;;;6.73;;
8281;SDS011;25606;42.686;23.136;2023-05-07T02:29:46;9.00;;;7.87;;
8281;SDS011;25606;42.686;23.136;2023-05-07T02:32:14;8.80;;;7.90;;
8281;SDS011;25606;42.686;23.136;2023-05-07T02:34:42;9.03;;;7.53;;
8281;SDS011;25606;42.686;23.136;2023-05-07T02:37:09;8.20;;;6.97;;
8281;SDS011;25606;42.686;23.136;2023-05-07T02:39:36;10.80;;;9.00;;
8281;SDS011;25606;42.686;23.136;2023-05-07T02:42:04;11.27;;;8.83;;
8281;SDS011;25606;42.686;23.136;2023-05-07T02:44:31;14.17;;;9.93;;
8281;SDS011;25606;42.686;23.136;2023-05-07T02:47:00;14.37;;;10.63;;
8281;SDS011;25606;42.686;23.136;2023-05-07T02:49:29;11.30;;;10.17;;
8281;SDS011;25606;42.686;23.136;2023-05-07T02:51:56;15.10;;;10.37;;
8281;SDS011;25606;42.686;23.136;2023-05-07T02:54:24;13.93;;;11.53;;
8281;SDS011;25606;42.686;23.136;2023-05-07T02:56:51;12.37;;;11.03;;
8281;SDS011;25606;42.686;23.136;2023-05-07T02:59:18;12.53;;;10.63;;
8281;SDS011;25606;42.686;23.136;2023-05-07T03:01:46;13.37;;;11.00;;
8281;SDS011;25606;42.686;23.136;2023-05-07T03:04:13;13.27;;;10.50;;
8281;SDS011;25606;42.686;23.136;2023-05-07T03:06:42;13.57;;;11.43;;
8281;SDS011;25606;42.686;23.136;2023-05-07T03:09:09;12.40;;;10.53;;
8281;SDS011;25606;42.686;23.136;2023-05-07T03:11:37;12.97;;;10.13;;
8281;SDS011;25606;42.686;23.136;2023-05-07T03:14:04;12.93;;;10.40;;
8281;SDS011;25606;42.686;23.136;2023-05-07T03:16:31;11.20;;;9.93;;
8281;SDS011;25606;42.686;23.136;2023-05-07T03:18:59;10.53;;;9.43;;
8281;SDS011;25606;42.686;23.136;2023-05-07T03:21:26;12.70;;;9.57;;
8281;SDS011;25606;42.686;23.136;2023-05-07T03:23:55;15.03;;;10.33;;
8281;SDS011;25606;42.686;23.136;2023-05-07T03:26:22;14.93;;;10.63;;
8281;SDS011;25606;42.686;23.136;2023-05-07T03:28:50;12.57;;;10.13;;
8281;SDS011;25606;42.686;23.136;2023-05-07T03:31:17;11.27;;;9.10;;
8281;SDS011;25606;42.686;23.136;2023-05-07T03:33:51;13.07;;;9.83;;
8281;SDS011;25606;42.686;23.136;2023-05-07T03:36:19;10.37;;;9.30;;
8281;SDS011;25606;42.686;23.136;2023-05-07T03:38:46;11.87;;;9.57;;
8281;SDS011;25606;42.686;23.136;2023-05-07T03:41:15;12.03;;;9.47;;
8281;SDS011;25606;42.686;23.136;2023-05-07T03:43:43;10.90;;;8.23;;
8281;SDS011;25606;42.686;23.136;2023-05-07T03:46:11;10.30;;;8.13;;
8281;SDS011;25606;42.686;23.136;2023-05-07T03:48:38;11.63;;;9.07;;
8281;SDS011;25606;42.686;23.136;2023-05-07T03:51:06;9.90;;;8.90;;
8281;SDS011;25606;42.686;23.136;2023-05-07T03:53:34;10.43;;;9.23;;
8281;SDS011;25606;42.686;23.136;2023-05-07T03:56:02;9.33;;;8.43;;
8281;SDS011;25606;42.686;23.136;2023-05-07T03:58:30;11.23;;;8.73;;
8281;SDS011;25606;42.686;23.136;2023-05-07T04:00:58;9.77;;;8.77;;
8281;SDS011;25606;42.686;23.136;2023-05-07T04:03:25;11.10;;;8.00;;
8281;SDS011;25606;42.686;23.136;2023-05-07T04:05:52;11.60;;;9.43;;
8281;SDS011;25606;42.686;23.136;2023-05-07T04:08:20;10.53;;;8.83;;
8281;SDS011;25606;42.686;23.136;2023-05-07T04:10:47;9.53;;;8.43;;
8281;SDS011;25606;42.686;23.136;2023-05-07T04:13:14;10.47;;;9.10;;
8281;SDS011;25606;42.686;23.136;2023-05-07T04:15:43;10.43;;;9.33;;
8281;SDS011;25606;42.686;23.136;2023-05-07T04:18:11;11.20;;;9.37;;
8281;SDS011;25606;42.686;23.136;2023-05-07T04:20:38;10.77;;;9.27;;
8281;SDS011;25606;42.686;23.136;2023-05-07T04:23:06;11.30;;;8.80;;
8281;SDS011;25606;42.686;23.136;2023-05-07T04:25:33;10.07;;;8.93;;
8281;SDS011;25606;42.686;23.136;2023-05-07T04:28:01;10.47;;;9.37;;
8281;SDS011;25606;42.686;23.136;2023-05-07T04:30:28;10.33;;;9.13;;
8281;SDS011;25606;42.686;23.136;2023-05-07T04:32:57;9.67;;;8.60;;
8281;SDS011;25606;42.686;23.136;2023-05-07T04:35:24;9.47;;;8.57;;
8281;SDS011;25606;42.686;23.136;2023-05-07T04:37:52;8.97;;;8.03;;
8281;SDS011;25606;42.686;23.136;2023-05-07T04:40:19;9.97;;;8.63;;
8281;SDS011;25606;42.686;23.136;2023-05-07T04:42:46;8.87;;;8.00;;
8281;SDS011;25606;42.686;23.136;2023-05-07T04:45:14;8.87;;;7.80;;
8281;SDS011;25606;42.686;23.136;2023-05-07T04:47:41;9.20;;;8.20;;
8281;SDS011;25606;42.686;23.136;2023-05-07T04:50:10;8.50;;;7.60;;
8281;SDS011;25606;42.686;23.136;2023-05-07T04:52:38;10.93;;;8.40;;
8281;SDS011;25606;42.686;23.136;2023-05-07T04:55:05;10.03;;;8.47;;
8281;SDS011;25606;42.686;23.136;2023-05-07T04:57:33;9.00;;;8.10;;
8281;SDS011;25606;42.686;23.136;2023-05-07T05:00:00;9.20;;;8.30;;
8281;SDS011;25606;42.686;23.136;2023-05-07T05:02:29;9.07;;;8.07;;
8281;SDS011;25606;42.686;23.136;2023-05-07T05:04:56;10.73;;;8.07;;
8281;SDS011;25606;42.686;23.136;2023-05-07T05:07:25;10.50;;;8.47;;
8281;SDS011;25606;42.686;23.136;2023-05-07T05:09:52;9.97;;;8.57;;
8281;SDS011;25606;42.686;23.136;2023-05-07T05:12:20;8.93;;;7.90;;
8281;SDS011;25606;42.686;23.136;2023-05-07T05:14:48;9.27;;;7.63;;
8281;SDS011;25606;42.686;23.136;2023-05-07T05:17:15;8.80;;;7.90;;
8281;SDS011;25606;42.686;23.136;2023-05-07T05:19:42;9.73;;;8.50;;
8281;SDS011;25606;42.686;23.136;2023-05-07T05:22:09;10.03;;;8.20;;
8281;SDS011;25606;42.686;23.136;2023-05-07T05:24:38;8.30;;;7.50;;
8281;SDS011;25606;42.686;23.136;2023-05-07T05:27:06;9.10;;;8.07;;
8281;SDS011;25606;42.686;23.136;2023-05-07T05:29:33;9.27;;;7.33;;
8281;SDS011;25606;42.686;23.136;2023-05-07T05:32:00;8.50;;;7.60;;
8281;SDS011;25606;42.686;23.136;2023-05-07T05:34:27;9.30;;;8.10;;
8281;SDS011;25606;42.686;23.136;2023-05-07T05:36:55;8.43;;;7.63;;
8281;SDS011;25606;42.686;23.136;2023-05-07T05:39:22;9.37;;;8.20;;
8281;SDS011;25606;42.686;23.136;2023-05-07T05:41:51;8.63;;;7.73;;
8281;SDS011;25606;42.686;23.136;2023-05-07T05:44:18;7.60;;;6.80;;
8281;SDS011;25606;42.686;23.136;2023-05-07T05:46:46;9.30;;;7.97;;
8281;SDS011;25606;42.686;23.136;2023-05-07T05:49:14;8.67;;;7.77;;
8281;SDS011;25606;42.686;23.136;2023-05-07T05:51:42;8.30;;;7.47;;
8281;SDS011;25606;42.686;23.136;2023-05-07T05:54:09;12.10;;;7.93;;
8281;SDS011;25606;42.686;23.136;2023-05-07T05:56:37;10.37;;;7.03;;
8281;SDS011;25606;42.686;23.136;2023-05-07T05:59:05;9.07;;;7.77;;
8281;SDS011;25606;42.686;23.136;2023-05-07T06:01:33;10.00;;;7.60;;
8281;SDS011;25606;42.686;23.136;2023-05-07T06:04:00;9.87;;;7.83;;
8281;SDS011;25606;42.686;23.136;2023-05-07T06:06:28;7.90;;;7.10;;
8281;SDS011;25606;42.686;23.136;2023-05-07T06:08:56;7.67;;;6.90;;
8281;SDS011;25606;42.686;23.136;2023-05-07T06:11:23;7.10;;;6.40;;
8281;SDS011;25606;42.686;23.136;2023-05-07T06:13:51;8.83;;;7.93;;
8281;SDS011;25606;42.686;23.136;2023-05-07T06:16:20;7.43;;;6.73;;
8281;SDS011;25606;42.686;23.136;2023-05-07T06:18:47;7.83;;;6.90;;
8281;SDS011;25606;42.686;23.136;2023-05-07T06:21:14;7.77;;;6.97;;
8281;SDS011;25606;42.686;23.136;2023-05-07T06:23:42;7.30;;;6.60;;
8281;SDS011;25606;42.686;23.136;2023-05-07T06:26:09;8.33;;;6.83;;
8281;SDS011;25606;42.686;23.136;2023-05-07T06:28:36;6.77;;;6.07;;
8281;SDS011;25606;42.686;23.136;2023-05-07T06:31:10;6.77;;;6.13;;
8281;SDS011;25606;42.686;23.136;2023-05-07T06:33:39;7.87;;;6.40;;
8281;SDS011;25606;42.686;23.136;2023-05-07T06:36:07;10.30;;;6.87;;
8281;SDS011;25606;42.686;23.136;2023-05-07T06:38:34;8.60;;;6.87;;
8281;SDS011;25606;42.686;23.136;2023-05-07T06:41:01;10.10;;;6.47;;
8281;SDS011;25606;42.686;23.136;2023-05-07T06:43:29;15.02;;;7.32;;
8281;SDS011;25606;42.686;23.136;2023-05-07T06:45:56;16.90;;;9.90;;
8281;SDS011;25606;42.686;23.136;2023-05-07T06:48:24;21.17;;;12.75;;
8281;SDS011;25606;42.686;23.136;2023-05-07T06:50:53;120.90;;;95.38;;
8281;SDS011;25606;42.686;23.136;2023-05-07T06:53:20;12.10;;;7.85;;
8281;SDS011;25606;42.686;23.136;2023-05-07T06:55:48;16.88;;;9.55;;
8281;SDS011;25606;42.686;23.136;2023-05-07T06:58:16;17.35;;;11.00;;
8281;SDS011;25606;42.686;23.136;2023-05-07T07:00:43;18.10;;;9.82;;
8281;SDS011;25606;42.686;23.136;2023-05-07T07:03:11;17.98;;;13.65;;
8281;SDS011;25606;42.686;23.136;2023-05-07T07:05:38;29.38;;;24.27;;
8281;SDS011;25606;42.686;23.136;2023-05-07T07:08:07;43.33;;;37.95;;
8281;SDS011;25606;42.686;23.136;2023-05-07T07:10:34;34.25;;;28.63;;
8281;SDS011;25606;42.686;23.136;2023-05-07T07:13:03;41.47;;;36.05;;
8281;SDS011;25606;42.686;23.136;2023-05-07T07:15:30;15.30;;;10.95;;
8281;SDS011;25606;42.686;23.136;2023-05-07T07:17:58;13.25;;;8.30;;
8281;SDS011;25606;42.686;23.136;2023-05-07T07:20:25;19.80;;;15.85;;
8281;SDS011;25606;42.686;23.136;2023-05-07T07:22:52;55.67;;;49.35;;
8281;SDS011;25606;42.686;23.136;2023-05-07T07:25:21;79.88;;;71.53;;
8281;SDS011;25606;42.686;23.136;2023-05-07T07:27:48;82.60;;;72.93;;
8281;SDS011;25606;42.686;23.136;2023-05-07T07:30:16;118.35;;;105.03;;
8281;SDS011;25606;42.686;23.136;2023-05-07T07:32:43;135.90;;;119.88;;
8281;SDS011;25606;42.686;23.136;2023-05-07T07:35:10;133.07;;;119.13;;
8281;SDS011;25606;42.686;23.136;2023-05-07T07:37:38;80.95;;;73.90;;
8281;SDS011;25606;42.686;23.136;2023-05-07T07:40:06;124.88;;;111.63;;
8281;SDS011;25606;42.686;23.136;2023-05-07T07:42:35;114.05;;;102.32;;
8281;SDS011;25606;42.686;23.136;2023-05-07T07:45:02;116.18;;;104.47;;
8281;SDS011;25606;42.686;23.136;2023-05-07T07:47:29;133.65;;;119.93;;
8281;SDS011;25606;42.686;23.136;2023-05-07T07:49:57;139.35;;;124.93;;
8281;SDS011;25606;42.686;23.136;2023-05-07T07:52:24;139.02;;;124.25;;
8281;SDS011;25606;42.686;23.136;2023-05-07T07:54:52;100.05;;;90.25;;
8281;SDS011;25606;42.686;23.136;2023-05-07T07:57:19;110.43;;;99.72;;
8281;SDS011;25606;42.686;23.136;2023-05-07T07:59:48;114.35;;;102.80;;
8281;SDS011;25606;42.686;23.136;2023-05-07T08:02:15;106.90;;;96.55;;
8281;SDS011;25606;42.686;23.136;2023-05-07T08:04:42;96.85;;;87.32;;
8281;SDS011;25606;42.686;23.136;2023-05-07T08:07:10;74.75;;;67.88;;
8281;SDS011;25606;42.686;23.136;2023-05-07T08:09:39;62.15;;;56.20;;
8281;SDS011;25606;42.686;23.136;2023-05-07T08:12:07;96.78;;;86.82;;
8281;SDS011;25606;42.686;23.136;2023-05-07T08:14:34;131.30;;;117.43;;
8281;SDS011;25606;42.686;23.136;2023-05-07T08:17:03;151.13;;;135.30;;
8281;SDS011;25606;42.686;23.136;2023-05-07T08:19:31;165.88;;;149.52;;
8281;SDS011;25606;42.686;23.136;2023-05-07T08:21:59;167.82;;;150.73;;
8281;SDS011;25606;42.686;23.136;2023-05-07T08:24:28;74.68;;;67.95;;
8281;SDS011;25606;42.686;23.136;2023-05-07T08:26:55;87.80;;;79.50;;
8281;SDS011;25606;42.686;23.136;2023-05-07T08:29:22;45.28;;;41.15;;
8281;SDS011;25606;42.686;23.136;2023-05-07T08:31:50;31.55;;;27.95;;
8281;SDS011;25606;42.686;23.136;2023-05-07T08:34:18;12.93;;;6.90;;
8281;SDS011;25606;42.686;23.136;2023-05-07T08:36:46;10.70;;;6.78;;
8281;SDS011;25606;42.686;23.136;2023-05-07T08:39:13;12.35;;;7.28;;
8281;SDS011;25606;42.686;23.136;2023-05-07T08:41:41;11.35;;;6.72;;
8281;SDS011;25606;42.686;23.136;2023-05-07T08:44:11;8.63;;;5.47;;
8281;SDS011;25606;42.686;23.136;2023-05-07T08:46:39;6.80;;;5.33;;
8281;SDS011;25606;42.686;23.136;2023-05-07T08:49:06;8.13;;;5.53;;
8281;SDS011;25606;42.686;23.136;2023-05-07T08:51:35;9.63;;;5.63;;
8281;SDS011;25606;42.686;23.136;2023-05-07T08:54:03;8.73;;;5.67;;
8281;SDS011;25606;42.686;23.136;2023-05-07T08:56:31;8.07;;;5.33;;
8281;SDS011;25606;42.686;23.136;2023-05-07T08:58:58;6.03;;;5.13;;
8281;SDS011;25606;42.686;23.136;2023-05-07T09:01:26;7.43;;;5.73;;
8281;SDS011;25606;42.686;23.136;2023-05-07T09:03:53;7.37;;;5.37;;
8281;SDS011;25606;42.686;23.136;2023-05-07T09:06:20;8.30;;;5.67;;
8281;SDS011;25606;42.686;23.136;2023-05-07T09:08:50;7.47;;;5.03;;
8281;SDS011;25606;42.686;23.136;2023-05-07T09:11:19;8.00;;;4.97;;
8281;SDS011;25606;42.686;23.136;2023-05-07T09:13:48;7.50;;;5.43;;
8281;SDS011;25606;42.686;23.136;2023-05-07T09:16:16;6.53;;;4.90;;
8281;SDS011;25606;42.686;23.136;2023-05-07T09:18:43;10.27;;;5.20;;
8281;SDS011;25606;42.686;23.136;2023-05-07T09:21:12;11.13;;;5.13;;
8281;SDS011;25606;42.686;23.136;2023-05-07T09:23:41;11.83;;;6.10;;
8281;SDS011;25606;42.686;23.136;2023-05-07T09:26:11;13.63;;;5.40;;
8281;SDS011;25606;42.686;23.136;2023-05-07T09:28:39;14.43;;;7.85;;
8281;SDS011;25606;42.686;23.136;2023-05-07T09:31:07;14.10;;;8.13;;
8281;SDS011;25606;42.686;23.136;2023-05-07T09:33:35;20.20;;;16.10;;
8281;SDS011;25606;42.686;23.136;2023-05-07T09:36:03;46.53;;;41.17;;
8281;SDS011;25606;42.686;23.136;2023-05-07T09:38:30;75.18;;;67.35;;
8281;SDS011;25606;42.686;23.136;2023-05-07T09:41:01;83.22;;;68.97;;
8281;SDS011;25606;42.686;23.136;2023-05-07T09:43:32;17.23;;;12.95;;
8281;SDS011;25606;42.686;23.136;2023-05-07T09:46:06;20.75;;;16.08;;
8281;SDS011;25606;42.686;23.136;2023-05-07T09:48:35;18.98;;;12.88;;
8281;SDS011;25606;42.686;23.136;2023-05-07T09:51:05;19.42;;;15.82;;
8281;SDS011;25606;42.686;23.136;2023-05-07T09:53:33;25.10;;;20.25;;
8281;SDS011;25606;42.686;23.136;2023-05-07T09:56:00;28.73;;;21.95;;
8281;SDS011;25606;42.686;23.136;2023-05-07T09:58:28;24.35;;;18.35;;
8281;SDS011;25606;42.686;23.136;2023-05-07T10:00:57;17.85;;;13.68;;
8281;SDS011;25606;42.686;23.136;2023-05-07T10:03:25;27.33;;;20.13;;
8281;SDS011;25606;42.686;23.136;2023-05-07T10:05:55;19.80;;;13.55;;
8281;SDS011;25606;42.686;23.136;2023-05-07T10:08:22;20.00;;;13.85;;
8281;SDS011;25606;42.686;23.136;2023-05-07T10:10:49;30.52;;;23.08;;
8281;SDS011;25606;42.686;23.136;2023-05-07T10:13:17;26.00;;;21.80;;
8281;SDS011;25606;42.686;23.136;2023-05-07T10:15:45;55.03;;;49.25;;
8281;SDS011;25606;42.686;23.136;2023-05-07T10:18:15;64.57;;;57.65;;
8281;SDS011;25606;42.686;23.136;2023-05-07T10:20:43;101.45;;;90.88;;
8281;SDS011;25606;42.686;23.136;2023-05-07T10:23:13;78.60;;;70.93;;
8281;SDS011;25606;42.686;23.136;2023-05-07T10:25:41;101.55;;;91.30;;
8281;SDS011;25606;42.686;23.136;2023-05-07T10:28:09;28.35;;;24.55;;
8281;SDS011;25606;42.686;23.136;2023-05-07T10:30:40;28.25;;;26.02;;
8281;SDS011;25606;42.686;23.136;2023-05-07T10:33:16;20.02;;;12.07;;
8281;SDS011;25606;42.686;23.136;2023-05-07T10:35:45;19.50;;;12.00;;
8281;SDS011;25606;42.686;23.136;2023-05-07T10:38:13;44.88;;;39.85;;
8281;SDS011;25606;42.686;23.136;2023-05-07T10:40:40;80.80;;;72.57;;
8281;SDS011;25606;42.686;23.136;2023-05-07T10:43:08;33.75;;;29.00;;
8281;SDS011;25606;42.686;23.136;2023-05-07T10:45:35;36.20;;;31.27;;
8281;SDS011;25606;42.686;23.136;2023-05-07T10:48:06;69.85;;;62.72;;
8281;SDS011;25606;42.686;23.136;2023-05-07T10:50:35;20.70;;;17.85;;
8281;SDS011;25606;42.686;23.136;2023-05-07T10:55:49;14.23;;;5.82;;
8281;SDS011;25606;42.686;23.136;2023-05-07T10:58:23;14.93;;;5.78;;
8281;SDS011;25606;42.686;23.136;2023-05-07T11:00:55;17.00;;;8.88;;
8281;SDS011;25606;42.686;23.136;2023-05-07T11:03:22;31.58;;;28.20;;
8281;SDS011;25606;42.686;23.136;2023-05-07T11:06:07;22.80;;;14.73;;
8281;SDS011;25606;42.686;23.136;2023-05-07T11:08:52;37.63;;;33.97;;
8281;SDS011;25606;42.686;23.136;2023-05-07T11:11:19;20.60;;;16.27;;
8281;SDS011;25606;42.686;23.136;2023-05-07T11:13:47;20.33;;;15.30;;
8281;SDS011;25606;42.686;23.136;2023-05-07T11:16:18;15.68;;;7.47;;
8281;SDS011;25606;42.686;23.136;2023-05-07T11:18:46;11.15;;;5.22;;
8281;SDS011;25606;42.686;23.136;2023-05-07T11:21:17;13.57;;;9.02;;
8281;SDS011;25606;42.686;23.136;2023-05-07T11:23:58;11.40;;;5.82;;
8281;SDS011;25606;42.686;23.136;2023-05-07T11:26:26;12.77;;;8.85;;
8281;SDS011;25606;42.686;23.136;2023-05-07T11:28:54;26.95;;;19.85;;
8281;SDS011;25606;42.686;23.136;2023-05-07T11:31:22;16.83;;;14.77;;
8281;SDS011;25606;42.686;23.136;2023-05-07T11:33:50;34.63;;;28.38;;
8281;SDS011;25606;42.686;23.136;2023-05-07T11:36:19;42.70;;;38.88;;
8281;SDS011;25606;42.686;23.136;2023-05-07T11:38:46;46.38;;;41.65;;
8281;SDS011;25606;42.686;23.136;2023-05-07T11:41:15;55.30;;;49.88;;
8281;SDS011;25606;42.686;23.136;2023-05-07T11:43:54;125.70;;;113.78;;
8281;SDS011;25606;42.686;23.136;2023-05-07T11:46:22;108.22;;;98.40;;
8281;SDS011;25606;42.686;23.136;2023-05-07T11:48:49;161.35;;;145.32;;
8281;SDS011;25606;42.686;23.136;2023-05-07T11:51:20;184.75;;;167.15;;
8281;SDS011;25606;42.686;23.136;2023-05-07T11:53:47;221.93;;;200.48;;
8281;SDS011;25606;42.686;23.136;2023-05-07T11:56:15;233.82;;;211.57;;
8281;SDS011;25606;42.686;23.136;2023-05-07T11:58:43;205.20;;;186.77;;
8281;SDS011;25606;42.686;23.136;2023-05-07T12:01:10;182.23;;;166.18;;
8281;SDS011;25606;42.686;23.136;2023-05-07T12:03:40;183.60;;;166.75;;
8281;SDS011;25606;42.686;23.136;2023-05-07T12:06:08;164.02;;;148.88;;
8281;SDS011;25606;42.686;23.136;2023-05-07T12:08:37;111.35;;;102.63;;
8281;SDS011;25606;42.686;23.136;2023-05-07T12:11:06;138.95;;;125.90;;
8281;SDS011;25606;42.686;23.136;2023-05-07T12:13:34;175.68;;;159.05;;
8281;SDS011;25606;42.686;23.136;2023-05-07T12:16:02;205.35;;;184.73;;
8281;SDS011;25606;42.686;23.136;2023-05-07T12:18:29;215.02;;;194.93;;
8281;SDS011;25606;42.686;23.136;2023-05-07T12:20:57;204.80;;;185.70;;
8281;SDS011;25606;42.686;23.136;2023-05-07T12:23:24;205.75;;;187.45;;
8281;SDS011;25606;42.686;23.136;2023-05-07T12:25:53;241.95;;;219.32;;
8281;SDS011;25606;42.686;23.136;2023-05-07T12:28:20;256.70;;;233.48;;
8281;SDS011;25606;42.686;23.136;2023-05-07T12:30:48;223.50;;;202.95;;
8281;SDS011;25606;42.686;23.136;2023-05-07T12:33:16;236.55;;;215.18;;
8281;SDS011;25606;42.686;23.136;2023-05-07T12:35:43;212.68;;;193.10;;
8281;SDS011;25606;42.686;23.136;2023-05-07T12:38:11;182.68;;;167.80;;
8281;SDS011;25606;42.686;23.136;2023-05-07T12:40:39;185.00;;;168.75;;
8281;SDS011;25606;42.686;23.136;2023-05-07T12:43:08;167.52;;;152.15;;
8281;SDS011;25606;42.686;23.136;2023-05-07T12:45:42;183.18;;;166.30;;
8281;SDS011;25606;42.686;23.136;2023-05-07T12:48:10;177.77;;;161.32;;
8281;SDS011;25606;42.686;23.136;2023-05-07T12:50:37;188.48;;;171.63;;
8281;SDS011;25606;42.686;23.136;2023-05-07T12:53:04;169.02;;;154.23;;
8281;SDS011;25606;42.686;23.136;2023-05-07T12:55:34;216.93;;;197.43;;
8281;SDS011;25606;42.686;23.136;2023-05-07T12:58:08;171.70;;;156.00;;
8281;SDS011;25606;42.686;23.136;2023-05-07T13:00:41;191.13;;;173.60;;
8281;SDS011;25606;42.686;23.136;2023-05-07T13:03:08;139.90;;;127.95;;
8281;SDS011;25606;42.686;23.136;2023-05-07T13:05:36;76.13;;;69.38;;
8281;SDS011;25606;42.686;23.136;2023-05-07T13:08:03;34.33;;;29.40;;
8281;SDS011;25606;42.686;23.136;2023-05-07T13:10:31;29.48;;;24.83;;
8281;SDS011;25606;42.686;23.136;2023-05-07T13:12:59;85.68;;;77.72;;
8281;SDS011;25606;42.686;23.136;2023-05-07T13:15:28;154.15;;;138.77;;
8281;SDS011;25606;42.686;23.136;2023-05-07T13:17:55;174.57;;;156.85;;
8281;SDS011;25606;42.686;23.136;2023-05-07T13:20:22;165.18;;;149.07;;
8281;SDS011;25606;42.686;23.136;2023-05-07T13:22:49;128.63;;;117.07;;
8281;SDS011;25606;42.686;23.136;2023-05-07T13:25:17;113.10;;;103.50;;
8281;SDS011;25606;42.686;23.136;2023-05-07T13:27:44;65.63;;;59.88;;
8281;SDS011;25606;42.686;23.136;2023-05-07T13:30:12;49.40;;;44.88;;
8281;SDS011;25606;42.686;23.136;2023-05-07T13:32:40;14.77;;;7.07;;
8281;SDS011;25606;42.686;23.136;2023-05-07T13:35:08;8.95;;;4.70;;
8281;SDS011;25606;42.686;23.136;2023-05-07T13:37:35;14.40;;;5.43;;
8281;SDS011;25606;42.686;23.136;2023-05-07T13:40:03;11.93;;;5.00;;
8281;SDS011;25606;42.686;23.136;2023-05-07T13:42:30;16.08;;;5.13;;
8281;SDS011;25606;42.686;23.136;2023-05-07T13:44:58;11.68;;;5.47;;
8281;SDS011;25606;42.686;23.136;2023-05-07T13:47:25;9.10;;;4.45;;
8281;SDS011;25606;42.686;23.136;2023-05-07T13:49:54;7.65;;;4.38;;
8281;SDS011;25606;42.686;23.136;2023-05-07T13:52:21;9.13;;;4.78;;
8281;SDS011;25606;42.686;23.136;2023-05-07T13:54:48;13.65;;;5.78;;
8281;SDS011;25606;42.686;23.136;2023-05-07T13:57:17;15.57;;;6.32;;
8281;SDS011;25606;42.686;23.136;2023-05-07T13:59:45;13.85;;;5.90;;
8281;SDS011;25606;42.686;23.136;2023-05-07T14:02:12;15.40;;;6.18;;
8281;SDS011;25606;42.686;23.136;2023-05-07T14:04:40;10.98;;;4.85;;
8281;SDS011;25606;42.686;23.136;2023-05-07T14:07:08;14.07;;;6.07;;
8281;SDS011;25606;42.686;23.136;2023-05-07T14:09:36;12.82;;;5.90;;
8281;SDS011;25606;42.686;23.136;2023-05-07T14:12:03;12.05;;;5.03;;
8281;SDS011;25606;42.686;23.136;2023-05-07T14:14:30;11.38;;;4.93;;
8281;SDS011;25606;42.686;23.136;2023-05-07T14:16:58;9.32;;;5.25;;
8281;SDS011;25606;42.686;23.136;2023-05-07T14:19:25;10.85;;;5.38;;
8281;SDS011;25606;42.686;23.136;2023-05-07T14:21:52;15.70;;;5.50;;
8281;SDS011;25606;42.686;23.136;2023-05-07T14:24:21;15.32;;;8.50;;
8281;SDS011;25606;42.686;23.136;2023-05-07T14:26:48;36.30;;;27.17;;
8281;SDS011;25606;42.686;23.136;2023-05-07T14:29:15;69.53;;;62.78;;
8281;SDS011;25606;42.686;23.136;2023-05-07T14:31:43;78.53;;;71.70;;
8281;SDS011;25606;42.686;23.136;2023-05-07T14:34:11;96.57;;;86.82;;
8281;SDS011;25606;42.686;23.136;2023-05-07T14:36:38;119.45;;;107.95;;